sensor_id;sensor_type;location;lat;lon;timestamp;pressure;altitude;pressure_sealevel;temperature;humidity
64687;BME280;51113;53.646;-113.674;2024-01-16T00:00:34;94403.69;;;-25.02;75.39
64687;BME280;51113;53.646;-113.674;2024-01-16T00:03:02;94419.56;;;-25.20;74.60
64687;BME280;51113;53.646;-113.674;2024-01-16T00:05:32;94399.31;;;-25.27;75.60
64687;BME280;51113;53.646;-113.674;2024-01-16T00:08:01;94398.34;;;-25.19;74.82
64687;BME280;51113;53.646;-113.674;2024-01-16T00:10:29;94382.59;;;-25.08;75.09
64687;BME280;51113;53.646;-113.674;2024-01-16T00:12:58;94384.09;;;-25.02;75.86
64687;BME280;51113;53.646;-113.674;2024-01-16T00:15:27;94383.28;;;-25.03;75.59
64687;BME280;51113;53.646;-113.674;2024-01-16T00:17:55;94383.28;;;-25.03;75.66
64687;BME280;51113;53.646;-113.674;2024-01-16T00:20:24;94388.72;;;-24.92;75.87
64687;BME280;51113;53.646;-113.674;2024-01-16T00:22:54;94373.56;;;-25.06;75.78
64687;BME280;51113;53.646;-113.674;2024-01-16T00:25:22;94378.13;;;-24.92;76.29
64687;BME280;51113;53.646;-113.674;2024-01-16T00:27:51;94368.53;;;-25.00;75.97
64687;BME280;51113;53.646;-113.674;2024-01-16T00:30:20;94361.72;;;-24.88;76.18
64687;BME280;51113;53.646;-113.674;2024-01-16T00:32:48;94356.81;;;-24.88;76.01
64687;BME280;51113;53.646;-113.674;2024-01-16T00:35:17;94359.06;;;-24.79;76.44
64687;BME280;51113;53.646;-113.674;2024-01-16T00:37:46;94365.28;;;-25.00;75.59
64687;BME280;51113;53.646;-113.674;2024-01-16T00:40:15;94356.78;;;-24.87;76.09
64687;BME280;51113;53.646;-113.674;2024-01-16T00:42:44;94355.06;;;-24.83;75.61
64687;BME280;51113;53.646;-113.674;2024-01-16T00:45:12;94356.47;;;-24.73;76.20
64687;BME280;51113;53.646;-113.674;2024-01-16T00:47:41;94335.00;;;-24.64;76.45
64687;BME280;51113;53.646;-113.674;2024-01-16T00:50:10;94334.22;;;-24.64;75.52
64687;BME280;51113;53.646;-113.674;2024-01-16T00:52:39;94315.25;;;-24.57;75.70
64687;BME280;51113;53.646;-113.674;2024-01-16T00:55:08;94303.66;;;-24.51;76.04
64687;BME280;51113;53.646;-113.674;2024-01-16T00:57:36;94308.53;;;-24.49;75.70
64687;BME280;51113;53.646;-113.674;2024-01-16T01:00:06;94302.81;;;-24.50;75.57
64687;BME280;51113;53.646;-113.674;2024-01-16T01:02:35;94300.28;;;-24.47;75.55
64687;BME280;51113;53.646;-113.674;2024-01-16T01:05:04;94299.50;;;-24.47;75.64
64687;BME280;51113;53.646;-113.674;2024-01-16T01:07:32;94297.88;;;-24.48;75.74
64687;BME280;51113;53.646;-113.674;2024-01-16T01:10:02;94283.06;;;-24.44;76.18
64687;BME280;51113;53.646;-113.674;2024-01-16T01:12:31;94268.25;;;-24.39;76.84
64687;BME280;51113;53.646;-113.674;2024-01-16T01:14:59;94275.88;;;-24.20;77.05
64687;BME280;51113;53.646;-113.674;2024-01-16T01:17:28;94273.38;;;-24.19;76.71
64687;BME280;51113;53.646;-113.674;2024-01-16T01:19:57;94268.84;;;-24.31;76.82
64687;BME280;51113;53.646;-113.674;2024-01-16T01:22:26;94267.81;;;-24.24;76.78
64687;BME280;51113;53.646;-113.674;2024-01-16T01:24:55;94270.13;;;-24.19;76.32
64687;BME280;51113;53.646;-113.674;2024-01-16T01:27:23;94271.75;;;-24.18;76.83
64687;BME280;51113;53.646;-113.674;2024-01-16T01:29:52;94270.22;;;-24.22;76.83
64687;BME280;51113;53.646;-113.674;2024-01-16T01:32:21;94264.38;;;-24.18;77.16
64687;BME280;51113;53.646;-113.674;2024-01-16T01:34:50;94263.66;;;-24.22;76.50
64687;BME280;51113;53.646;-113.674;2024-01-16T01:37:19;94254.63;;;-24.20;76.29
64687;BME280;51113;53.646;-113.674;2024-01-16T01:39:47;94253.50;;;-24.08;77.22
64687;BME280;51113;53.646;-113.674;2024-01-16T01:42:16;94257.97;;;-23.93;77.27
64687;BME280;51113;53.646;-113.674;2024-01-16T01:44:45;94253.75;;;-23.88;77.50
64687;BME280;51113;53.646;-113.674;2024-01-16T01:47:14;94238.97;;;-23.86;76.82
64687;BME280;51113;53.646;-113.674;2024-01-16T01:49:43;94246.41;;;-23.89;76.40
64687;BME280;51113;53.646;-113.674;2024-01-16T01:52:12;94242.16;;;-23.83;76.97
64687;BME280;51113;53.646;-113.674;2024-01-16T01:54:41;94239.09;;;-23.91;75.65
64687;BME280;51113;53.646;-113.674;2024-01-16T01:57:10;94221.84;;;-23.88;76.37
64687;BME280;51113;53.646;-113.674;2024-01-16T01:59:38;94238.09;;;-23.84;75.98
64687;BME280;51113;53.646;-113.674;2024-01-16T02:02:07;94234.75;;;-23.81;76.38
64687;BME280;51113;53.646;-113.674;2024-01-16T02:04:36;94232.78;;;-23.70;76.50
64687;BME280;51113;53.646;-113.674;2024-01-16T02:07:06;94214.41;;;-23.85;75.75
64687;BME280;51113;53.646;-113.674;2024-01-16T02:09:36;94226.28;;;-23.71;76.77
64687;BME280;51113;53.646;-113.674;2024-01-16T02:12:06;94211.06;;;-23.82;75.65
64687;BME280;51113;53.646;-113.674;2024-01-16T02:14:36;94217.38;;;-23.75;76.05
64687;BME280;51113;53.646;-113.674;2024-01-16T02:17:05;94202.41;;;-23.66;77.03
64687;BME280;51113;53.646;-113.674;2024-01-16T02:19:34;94198.81;;;-23.56;77.23
64687;BME280;51113;53.646;-113.674;2024-01-16T02:22:05;94197.25;;;-23.58;76.48
64687;BME280;51113;53.646;-113.674;2024-01-16T02:24:37;94187.53;;;-23.62;76.01
64687;BME280;51113;53.646;-113.674;2024-01-16T02:27:06;94177.38;;;-23.51;76.24
64687;BME280;51113;53.646;-113.674;2024-01-16T02:29:40;94179.38;;;-23.37;77.32
64687;BME280;51113;53.646;-113.674;2024-01-16T02:32:12;94185.88;;;-23.35;76.26
64687;BME280;51113;53.646;-113.674;2024-01-16T02:34:41;94175.94;;;-23.32;75.53
64687;BME280;51113;53.646;-113.674;2024-01-16T02:37:11;94166.13;;;-23.32;75.18
64687;BME280;51113;53.646;-113.674;2024-01-16T02:39:39;94164.47;;;-23.31;75.73
64687;BME280;51113;53.646;-113.674;2024-01-16T02:42:08;94158.75;;;-23.32;75.33
64687;BME280;51113;53.646;-113.674;2024-01-16T02:44:37;94137.16;;;-23.22;75.87
64687;BME280;51113;53.646;-113.674;2024-01-16T02:47:05;94137.81;;;-23.17;76.15
64687;BME280;51113;53.646;-113.674;2024-01-16T02:49:35;94132.91;;;-23.17;75.23
64687;BME280;51113;53.646;-113.674;2024-01-16T02:52:05;94140.28;;;-23.17;74.73
64687;BME280;51113;53.646;-113.674;2024-01-16T02:54:34;94133.34;;;-23.06;75.28
64687;BME280;51113;53.646;-113.674;2024-01-16T02:57:02;94127.63;;;-23.06;75.32
64687;BME280;51113;53.646;-113.674;2024-01-16T02:59:31;94130.00;;;-23.03;75.49
64687;BME280;51113;53.646;-113.674;2024-01-16T03:02:00;94127.63;;;-23.06;74.90
64687;BME280;51113;53.646;-113.674;2024-01-16T03:04:28;94137.00;;;-22.92;76.24
64687;BME280;51113;53.646;-113.674;2024-01-16T03:06:57;94126.69;;;-23.02;75.06
64687;BME280;51113;53.646;-113.674;2024-01-16T03:09:26;94126.53;;;-22.98;75.36
64687;BME280;51113;53.646;-113.674;2024-01-16T03:11:55;94118.41;;;-23.00;75.90
64687;BME280;51113;53.646;-113.674;2024-01-16T03:14:23;94119.50;;;-22.83;75.56
64687;BME280;51113;53.646;-113.674;2024-01-16T03:16:52;94117.00;;;-22.82;75.34
64687;BME280;51113;53.646;-113.674;2024-01-16T03:19:21;94111.03;;;-22.76;76.09
64687;BME280;51113;53.646;-113.674;2024-01-16T03:21:50;94108.25;;;-22.67;76.28
64687;BME280;51113;53.646;-113.674;2024-01-16T03:24:18;94102.44;;;-22.65;76.29
64687;BME280;51113;53.646;-113.674;2024-01-16T03:26:47;94093.34;;;-22.63;75.90
64687;BME280;51113;53.646;-113.674;2024-01-16T03:29:15;94087.47;;;-22.58;75.88
64687;BME280;51113;53.646;-113.674;2024-01-16T03:31:44;94093.25;;;-22.59;75.63
64687;BME280;51113;53.646;-113.674;2024-01-16T03:34:13;94074.59;;;-22.65;75.20
64687;BME280;51113;53.646;-113.674;2024-01-16T03:36:42;94071.91;;;-22.59;75.56
64687;BME280;51113;53.646;-113.674;2024-01-16T03:39:11;94082.38;;;-22.54;75.72
64687;BME280;51113;53.646;-113.674;2024-01-16T03:41:39;94091.72;;;-22.40;76.28
64687;BME280;51113;53.646;-113.674;2024-01-16T03:44:08;94092.75;;;-22.46;75.41
64687;BME280;51113;53.646;-113.674;2024-01-16T03:46:37;94095.69;;;-22.36;75.79
64687;BME280;51113;53.646;-113.674;2024-01-16T03:49:05;94086.47;;;-22.31;75.59
64687;BME280;51113;53.646;-113.674;2024-01-16T03:51:34;94090.59;;;-22.32;75.42
64687;BME280;51113;53.646;-113.674;2024-01-16T03:54:03;94087.16;;;-22.27;74.97
64687;BME280;51113;53.646;-113.674;2024-01-16T03:56:32;94079.78;;;-22.27;75.05
64687;BME280;51113;53.646;-113.674;2024-01-16T03:59:01;94096.09;;;-22.25;74.92
64687;BME280;51113;53.646;-113.674;2024-01-16T04:01:33;94089.28;;;-22.18;75.18
64687;BME280;51113;53.646;-113.674;2024-01-16T04:04:04;94094.50;;;-22.04;76.44
64687;BME280;51113;53.646;-113.674;2024-01-16T04:06:35;94083.97;;;-22.08;75.02
64687;BME280;51113;53.646;-113.674;2024-01-16T04:09:05;94081.56;;;-22.09;75.29
64687;BME280;51113;53.646;-113.674;2024-01-16T04:11:34;94080.09;;;-21.93;75.71
64687;BME280;51113;53.646;-113.674;2024-01-16T04:14:03;94072.47;;;-21.87;76.27
64687;BME280;51113;53.646;-113.674;2024-01-16T04:16:32;94069.97;;;-21.85;76.16
64687;BME280;51113;53.646;-113.674;2024-01-16T04:19:01;94058.22;;;-21.79;75.59
64687;BME280;51113;53.646;-113.674;2024-01-16T04:21:29;94050.84;;;-21.79;75.18
64687;BME280;51113;53.646;-113.674;2024-01-16T04:23:58;94037.03;;;-21.83;75.82
64687;BME280;51113;53.646;-113.674;2024-01-16T04:26:27;94043.31;;;-21.76;75.74
64687;BME280;51113;53.646;-113.674;2024-01-16T04:28:55;94045.19;;;-21.60;76.89
64687;BME280;51113;53.646;-113.674;2024-01-16T04:31:24;94050.09;;;-21.60;77.04
64687;BME280;51113;53.646;-113.674;2024-01-16T04:33:53;94041.78;;;-21.58;76.99
64687;BME280;51113;53.646;-113.674;2024-01-16T04:36:22;94039.81;;;-21.50;77.42
64687;BME280;51113;53.646;-113.674;2024-01-16T04:38:50;94048.56;;;-21.43;77.61
64687;BME280;51113;53.646;-113.674;2024-01-16T04:41:19;94052.56;;;-21.40;78.08
64687;BME280;51113;53.646;-113.674;2024-01-16T04:43:49;94035.28;;;-21.39;78.07
64687;BME280;51113;53.646;-113.674;2024-01-16T04:46:18;94035.28;;;-21.39;78.64
64687;BME280;51113;53.646;-113.674;2024-01-16T04:48:47;94033.16;;;-21.27;78.22
64687;BME280;51113;53.646;-113.674;2024-01-16T04:51:15;94037.75;;;-21.20;78.97
64687;BME280;51113;53.646;-113.674;2024-01-16T04:53:44;94030.56;;;-21.24;78.71
64687;BME280;51113;53.646;-113.674;2024-01-16T04:56:13;94017.09;;;-21.17;78.86
64687;BME280;51113;53.646;-113.674;2024-01-16T04:58:42;94017.47;;;-21.25;78.71
64687;BME280;51113;53.646;-113.674;2024-01-16T05:01:10;94012.66;;;-21.28;79.47
64687;BME280;51113;53.646;-113.674;2024-01-16T05:03:40;94017.47;;;-21.25;80.72
64687;BME280;51113;53.646;-113.674;2024-01-16T05:06:13;94006.69;;;-21.22;80.39
64687;BME280;51113;53.646;-113.674;2024-01-16T05:08:45;93994.41;;;-21.24;80.90
64687;BME280;51113;53.646;-113.674;2024-01-16T05:11:14;94001.75;;;-21.22;80.44
64687;BME280;51113;53.646;-113.674;2024-01-16T05:13:43;94007.19;;;-21.16;81.17
64687;BME280;51113;53.646;-113.674;2024-01-16T05:16:13;93992.41;;;-21.16;80.97
64687;BME280;51113;53.646;-113.674;2024-01-16T05:18:42;93987.47;;;-21.16;81.47
64687;BME280;51113;53.646;-113.674;2024-01-16T05:21:11;93992.59;;;-21.20;81.16
64687;BME280;51113;53.646;-113.674;2024-01-16T05:23:40;93990.13;;;-21.20;80.78
64687;BME280;51113;53.646;-113.674;2024-01-16T05:26:09;93992.94;;;-21.28;81.13
64687;BME280;51113;53.646;-113.674;2024-01-16T05:28:41;93992.41;;;-21.35;81.27
64687;BME280;51113;53.646;-113.674;2024-01-16T05:31:10;93992.47;;;-21.36;81.23
64687;BME280;51113;53.646;-113.674;2024-01-16T05:33:38;93984.66;;;-21.46;81.52
64687;BME280;51113;53.646;-113.674;2024-01-16T05:36:07;93984.91;;;-21.52;81.70
64687;BME280;51113;53.646;-113.674;2024-01-16T05:38:36;93975.25;;;-21.56;81.51
64687;BME280;51113;53.646;-113.674;2024-01-16T05:41:06;93960.72;;;-21.63;81.72
64687;BME280;51113;53.646;-113.674;2024-01-16T05:43:34;93965.84;;;-21.67;81.44
64687;BME280;51113;53.646;-113.674;2024-01-16T05:46:03;93970.03;;;-21.69;81.92
64687;BME280;51113;53.646;-113.674;2024-01-16T05:48:32;93964.97;;;-21.66;81.88
64687;BME280;51113;53.646;-113.674;2024-01-16T05:51:01;93965.91;;;-21.69;82.39
64687;BME280;51113;53.646;-113.674;2024-01-16T05:53:29;93959.19;;;-21.65;82.35
64687;BME280;51113;53.646;-113.674;2024-01-16T05:55:58;93961.59;;;-21.64;82.64
64687;BME280;51113;53.646;-113.674;2024-01-16T05:58:26;93948.97;;;-21.56;82.55
64687;BME280;51113;53.646;-113.674;2024-01-16T06:00:55;93947.16;;;-21.52;82.53
64687;BME280;51113;53.646;-113.674;2024-01-16T06:03:24;93926.06;;;-21.58;82.47
64687;BME280;51113;53.646;-113.674;2024-01-16T06:05:52;93937.91;;;-21.47;82.73
64687;BME280;51113;53.646;-113.674;2024-01-16T06:08:22;93926.34;;;-21.45;82.52
64687;BME280;51113;53.646;-113.674;2024-01-16T06:10:50;93919.94;;;-21.49;82.39
64687;BME280;51113;53.646;-113.674;2024-01-16T06:13:19;93919.34;;;-21.54;82.04
64687;BME280;51113;53.646;-113.674;2024-01-16T06:15:47;93919.16;;;-21.50;82.13
64687;BME280;51113;53.646;-113.674;2024-01-16T06:18:15;93937.13;;;-21.48;82.43
64687;BME280;51113;53.646;-113.674;2024-01-16T06:20:44;93922.28;;;-21.46;82.24
64687;BME280;51113;53.646;-113.674;2024-01-16T06:23:13;93918.41;;;-21.52;81.95
64687;BME280;51113;53.646;-113.674;2024-01-16T06:25:42;93924.19;;;-21.53;81.88
64687;BME280;51113;53.646;-113.674;2024-01-16T06:28:10;93913.56;;;-21.53;82.19
64687;BME280;51113;53.646;-113.674;2024-01-16T06:30:40;93902.03;;;-21.53;81.82
64687;BME280;51113;53.646;-113.674;2024-01-16T06:33:08;93904.50;;;-21.53;81.84
64687;BME280;51113;53.646;-113.674;2024-01-16T06:35:37;93899.63;;;-21.54;82.05
64687;BME280;51113;53.646;-113.674;2024-01-16T06:38:06;93913.81;;;-21.59;81.97
64687;BME280;51113;53.646;-113.674;2024-01-16T06:40:35;93918.72;;;-21.59;81.97
64687;BME280;51113;53.646;-113.674;2024-01-16T06:43:04;93907.03;;;-21.54;82.16
64687;BME280;51113;53.646;-113.674;2024-01-16T06:45:33;93901.38;;;-21.56;82.16
64687;BME280;51113;53.646;-113.674;2024-01-16T06:48:02;93902.72;;;-21.49;82.53
64687;BME280;51113;53.646;-113.674;2024-01-16T06:50:31;93897.38;;;-21.40;82.48
64687;BME280;51113;53.646;-113.674;2024-01-16T06:53:00;93900.84;;;-21.44;81.88
64687;BME280;51113;53.646;-113.674;2024-01-16T06:55:29;93898.25;;;-21.41;82.14
64687;BME280;51113;53.646;-113.674;2024-01-16T06:57:58;93879.88;;;-21.34;81.78
64687;BME280;51113;53.646;-113.674;2024-01-16T07:00:26;93880.16;;;-21.21;82.36
64687;BME280;51113;53.646;-113.674;2024-01-16T07:02:55;93880.50;;;-21.12;82.27
64687;BME280;51113;53.646;-113.674;2024-01-16T07:05:24;93875.50;;;-21.10;82.20
64687;BME280;51113;53.646;-113.674;2024-01-16T07:07:53;93865.31;;;-21.03;82.28
64687;BME280;51113;53.646;-113.674;2024-01-16T07:10:22;93858.78;;;-21.04;82.26
64687;BME280;51113;53.646;-113.674;2024-01-16T07:12:52;93854.72;;;-21.05;82.13
64687;BME280;51113;53.646;-113.674;2024-01-16T07:15:21;93859.72;;;-21.06;81.97
64687;BME280;51113;53.646;-113.674;2024-01-16T07:17:50;93856.91;;;-20.99;82.72
64687;BME280;51113;53.646;-113.674;2024-01-16T07:20:19;93856.91;;;-20.99;82.33
64687;BME280;51113;53.646;-113.674;2024-01-16T07:22:48;93862.50;;;-20.95;82.27
64687;BME280;51113;53.646;-113.674;2024-01-16T07:25:16;93867.16;;;-20.89;82.41
64687;BME280;51113;53.646;-113.674;2024-01-16T07:27:45;93872.75;;;-20.85;82.66
64687;BME280;51113;53.646;-113.674;2024-01-16T07:30:16;93883.28;;;-20.82;82.74
64687;BME280;51113;53.646;-113.674;2024-01-16T07:32:45;93861.06;;;-20.82;82.70
64687;BME280;51113;53.646;-113.674;2024-01-16T07:35:14;93861.81;;;-20.80;82.78
64687;BME280;51113;53.646;-113.674;2024-01-16T07:37:43;93859.78;;;-20.72;83.15
64687;BME280;51113;53.646;-113.674;2024-01-16T07:40:12;93867.63;;;-20.64;83.08
64687;BME280;51113;53.646;-113.674;2024-01-16T07:42:40;93853.50;;;-20.60;83.10
64687;BME280;51113;53.646;-113.674;2024-01-16T07:45:09;93844.22;;;-20.55;82.95
64687;BME280;51113;53.646;-113.674;2024-01-16T07:47:38;93837.59;;;-20.54;82.62
64687;BME280;51113;53.646;-113.674;2024-01-16T07:50:08;93843.63;;;-20.43;82.76
64687;BME280;51113;53.646;-113.674;2024-01-16T07:52:36;93834.41;;;-20.39;82.97
64687;BME280;51113;53.646;-113.674;2024-01-16T07:55:05;93843.75;;;-20.28;83.23
64687;BME280;51113;53.646;-113.674;2024-01-16T07:57:34;93844.25;;;-20.22;82.76
64687;BME280;51113;53.646;-113.674;2024-01-16T08:00:03;93827.03;;;-20.23;82.84
64687;BME280;51113;53.646;-113.674;2024-01-16T08:02:34;93824.50;;;-20.22;82.77
64687;BME280;51113;53.646;-113.674;2024-01-16T08:05:03;93827.69;;;-20.20;83.22
64687;BME280;51113;53.646;-113.674;2024-01-16T08:07:32;93825.06;;;-20.17;83.28
64687;BME280;51113;53.646;-113.674;2024-01-16T08:10:03;93832.41;;;-20.15;82.87
64687;BME280;51113;53.646;-113.674;2024-01-16T08:12:31;93831.31;;;-20.10;83.08
64687;BME280;51113;53.646;-113.674;2024-01-16T08:15:00;93829.88;;;-20.14;83.41
64687;BME280;51113;53.646;-113.674;2024-01-16T08:17:29;93818.81;;;-20.07;83.63
64687;BME280;51113;53.646;-113.674;2024-01-16T08:19:58;93830.00;;;-20.00;83.69
64687;BME280;51113;53.646;-113.674;2024-01-16T08:22:27;93823.94;;;-19.94;83.57
64687;BME280;51113;53.646;-113.674;2024-01-16T08:24:55;93828.72;;;-19.91;83.27
64687;BME280;51113;53.646;-113.674;2024-01-16T08:27:24;93818.13;;;-19.93;83.03
64687;BME280;51113;53.646;-113.674;2024-01-16T08:29:52;93817.84;;;-19.87;83.35
64687;BME280;51113;53.646;-113.674;2024-01-16T08:32:21;93811.16;;;-19.85;83.40
64687;BME280;51113;53.646;-113.674;2024-01-16T08:34:50;93806.19;;;-19.85;82.58
64687;BME280;51113;53.646;-113.674;2024-01-16T08:37:19;93802.72;;;-19.81;83.92
64687;BME280;51113;53.646;-113.674;2024-01-16T08:39:48;93805.59;;;-19.73;84.22
64687;BME280;51113;53.646;-113.674;2024-01-16T08:42:17;93814.75;;;-19.75;83.97
64687;BME280;51113;53.646;-113.674;2024-01-16T08:44:46;93816.03;;;-19.68;84.01
64687;BME280;51113;53.646;-113.674;2024-01-16T08:47:15;93813.03;;;-19.57;84.56
64687;BME280;51113;53.646;-113.674;2024-01-16T08:49:44;93816.13;;;-19.53;84.15
64687;BME280;51113;53.646;-113.674;2024-01-16T08:52:12;93811.72;;;-19.48;83.70
64687;BME280;51113;53.646;-113.674;2024-01-16T08:54:41;93810.59;;;-19.43;84.09
64687;BME280;51113;53.646;-113.674;2024-01-16T08:57:10;93803.91;;;-19.41;83.99
64687;BME280;51113;53.646;-113.674;2024-01-16T08:59:41;93801.44;;;-19.41;83.64
64687;BME280;51113;53.646;-113.674;2024-01-16T09:02:11;93800.56;;;-19.40;83.20
64687;BME280;51113;53.646;-113.674;2024-01-16T09:04:40;93777.13;;;-19.48;83.92
64687;BME280;51113;53.646;-113.674;2024-01-16T09:07:09;93782.22;;;-19.36;83.92
64687;BME280;51113;53.646;-113.674;2024-01-16T09:09:38;93780.41;;;-19.32;83.66
64687;BME280;51113;53.646;-113.674;2024-01-16T09:12:07;93775.13;;;-19.26;84.35
64687;BME280;51113;53.646;-113.674;2024-01-16T09:14:36;93773.38;;;-19.24;83.72
64687;BME280;51113;53.646;-113.674;2024-01-16T09:17:05;93763.41;;;-19.22;83.69
64687;BME280;51113;53.646;-113.674;2024-01-16T09:19:34;93768.19;;;-19.19;83.73
64687;BME280;51113;53.646;-113.674;2024-01-16T09:22:03;93759.97;;;-19.20;84.17
64687;BME280;51113;53.646;-113.674;2024-01-16T09:24:31;93765.63;;;-19.18;83.76
64687;BME280;51113;53.646;-113.674;2024-01-16T09:27:00;93764.59;;;-19.14;84.63
64687;BME280;51113;53.646;-113.674;2024-01-16T09:29:29;93764.50;;;-19.12;84.59
64687;BME280;51113;53.646;-113.674;2024-01-16T09:31:59;93746.94;;;-19.08;84.58
64687;BME280;51113;53.646;-113.674;2024-01-16T09:34:28;93751.47;;;-19.00;84.11
64687;BME280;51113;53.646;-113.674;2024-01-16T09:36:57;93763.06;;;-19.01;84.29
64687;BME280;51113;53.646;-113.674;2024-01-16T09:39:29;93751.19;;;-19.10;84.29
64687;BME280;51113;53.646;-113.674;2024-01-16T09:42:03;93759.31;;;-19.08;84.41
64687;BME280;51113;53.646;-113.674;2024-01-16T09:44:32;93751.41;;;-18.99;84.66
64687;BME280;51113;53.646;-113.674;2024-01-16T09:47:02;93754.59;;;-18.96;84.85
64687;BME280;51113;53.646;-113.674;2024-01-16T09:49:35;93751.06;;;-18.92;84.41
64687;BME280;51113;53.646;-113.674;2024-01-16T09:52:04;93753.00;;;-18.98;84.25
64687;BME280;51113;53.646;-113.674;2024-01-16T09:54:32;93763.34;;;-18.91;84.60
64687;BME280;51113;53.646;-113.674;2024-01-16T09:57:02;93754.09;;;-18.87;84.35
64687;BME280;51113;53.646;-113.674;2024-01-16T09:59:36;93743.41;;;-18.88;84.30
64687;BME280;51113;53.646;-113.674;2024-01-16T10:02:10;93750.03;;;-18.88;84.11
64687;BME280;51113;53.646;-113.674;2024-01-16T10:04:43;93742.25;;;-18.82;83.92
64687;BME280;51113;53.646;-113.674;2024-01-16T10:07:12;93742.88;;;-18.79;83.83
64687;BME280;51113;53.646;-113.674;2024-01-16T10:09:43;93732.81;;;-18.76;84.46
64687;BME280;51113;53.646;-113.674;2024-01-16T10:12:13;93738.41;;;-18.72;83.97
64687;BME280;51113;53.646;-113.674;2024-01-16T10:14:42;93725.50;;;-18.77;83.74
64687;BME280;51113;53.646;-113.674;2024-01-16T10:17:14;93729.47;;;-18.75;83.84
64687;BME280;51113;53.646;-113.674;2024-01-16T10:19:52;93741.41;;;-18.67;84.22
64687;BME280;51113;53.646;-113.674;2024-01-16T10:22:25;93734.88;;;-18.68;84.01
64687;BME280;51113;53.646;-113.674;2024-01-16T10:25:10;93738.84;;;-18.66;83.52
64687;BME280;51113;53.646;-113.674;2024-01-16T10:27:44;93732.41;;;-18.68;83.69
64687;BME280;51113;53.646;-113.674;2024-01-16T10:30:13;93734.44;;;-18.60;83.93
64687;BME280;51113;53.646;-113.674;2024-01-16T10:32:43;93735.84;;;-18.56;84.72
64687;BME280;51113;53.646;-113.674;2024-01-16T10:35:13;93735.75;;;-18.55;84.28
64687;BME280;51113;53.646;-113.674;2024-01-16T10:37:53;93738.22;;;-18.55;84.56
64687;BME280;51113;53.646;-113.674;2024-01-16T10:40:23;93737.19;;;-18.51;84.69
64687;BME280;51113;53.646;-113.674;2024-01-16T10:42:59;93735.88;;;-18.42;84.67
64687;BME280;51113;53.646;-113.674;2024-01-16T10:45:28;93732.25;;;-18.37;84.96
64687;BME280;51113;53.646;-113.674;2024-01-16T10:48:05;93730.13;;;-18.28;85.07
64687;BME280;51113;53.646;-113.674;2024-01-16T10:50:37;93730.41;;;-18.19;85.22
64687;BME280;51113;53.646;-113.674;2024-01-16T10:53:07;93735.72;;;-18.11;85.04
64687;BME280;51113;53.646;-113.674;2024-01-16T10:55:57;93726.31;;;-18.06;85.01
64687;BME280;51113;53.646;-113.674;2024-01-16T10:58:25;93730.13;;;-18.00;85.40
64687;BME280;51113;53.646;-113.674;2024-01-16T11:00:57;93733.03;;;-17.93;85.31
64687;BME280;51113;53.646;-113.674;2024-01-16T11:06:17;93724.56;;;-17.89;85.14
64687;BME280;51113;53.646;-113.674;2024-01-16T11:08:47;93722.50;;;-17.83;85.51
64687;BME280;51113;53.646;-113.674;2024-01-16T11:11:17;93712.41;;;-17.80;85.71
64687;BME280;51113;53.646;-113.674;2024-01-16T11:13:46;93716.22;;;-17.74;85.90
64687;BME280;51113;53.646;-113.674;2024-01-16T11:16:15;93696.19;;;-17.71;85.71
64687;BME280;51113;53.646;-113.674;2024-01-16T11:18:44;93705.44;;;-17.60;86.31
64687;BME280;51113;53.646;-113.674;2024-01-16T11:21:14;93712.50;;;-17.54;86.15
64687;BME280;51113;53.646;-113.674;2024-01-16T11:23:45;93698.91;;;-17.61;86.11
64687;BME280;51113;53.646;-113.674;2024-01-16T11:26:32;93704.09;;;-17.52;86.74
64687;BME280;51113;53.646;-113.674;2024-01-16T11:29:39;93707.53;;;-17.40;87.07
64687;BME280;51113;53.646;-113.674;2024-01-16T11:32:08;93680.72;;;-17.48;86.15
64687;BME280;51113;53.646;-113.674;2024-01-16T11:34:53;93690.97;;;-17.40;86.26
64687;BME280;51113;53.646;-113.674;2024-01-16T11:37:30;93687.31;;;-17.34;86.18
64687;BME280;51113;53.646;-113.674;2024-01-16T11:40:33;93666.38;;;-17.30;86.16
64687;BME280;51113;53.646;-113.674;2024-01-16T11:46:10;93679.81;;;-17.20;86.37
64687;BME280;51113;53.646;-113.674;2024-01-16T11:48:39;93672.88;;;-17.15;86.52
64687;BME280;51113;53.646;-113.674;2024-01-16T11:51:24;93671.59;;;-17.08;86.78
64687;BME280;51113;53.646;-113.674;2024-01-16T11:53:53;93656.44;;;-17.03;86.61
64687;BME280;51113;53.646;-113.674;2024-01-16T12:02:21;93645.44;;;-16.86;86.91
64687;BME280;51113;53.646;-113.674;2024-01-16T12:04:53;93640.09;;;-16.80;86.62
64687;BME280;51113;53.646;-113.674;2024-01-16T12:07:52;93625.38;;;-16.83;86.70
64687;BME280;51113;53.646;-113.674;2024-01-16T12:10:24;93630.25;;;-16.69;87.26
64687;BME280;51113;53.646;-113.674;2024-01-16T12:12:58;93593.81;;;-16.81;87.84
64687;BME280;51113;53.646;-113.674;2024-01-16T12:15:31;93622.88;;;-16.58;88.67
64687;BME280;51113;53.646;-113.674;2024-01-16T12:18:01;93608.16;;;-16.48;88.38
64687;BME280;51113;53.646;-113.674;2024-01-16T12:20:35;93604.50;;;-16.43;88.70
64687;BME280;51113;53.646;-113.674;2024-01-16T12:23:06;93611.44;;;-16.35;88.27
64687;BME280;51113;53.646;-113.674;2024-01-16T12:25:36;93595.34;;;-16.29;87.88
64687;BME280;51113;53.646;-113.674;2024-01-16T12:28:25;93587.88;;;-16.29;88.36
64687;BME280;51113;53.646;-113.674;2024-01-16T12:30:59;93566.06;;;-16.50;88.67
64687;BME280;51113;53.646;-113.674;2024-01-16T12:33:28;93594.63;;;-16.31;88.78
64687;BME280;51113;53.646;-113.674;2024-01-16T12:36:03;93608.72;;;-16.19;88.94
64687;BME280;51113;53.646;-113.674;2024-01-16T12:38:33;93611.72;;;-16.27;88.40
64687;BME280;51113;53.646;-113.674;2024-01-16T12:41:06;93607.16;;;-16.33;87.65
64687;BME280;51113;53.646;-113.674;2024-01-16T12:43:36;93594.84;;;-16.35;88.49
64687;BME280;51113;53.646;-113.674;2024-01-16T12:46:05;93590.56;;;-16.32;88.14